Latest Weather Observations for Mount Isa

IDQ60801

Issued at 3:03 pm EST Tuesday 30 August 2016 (issued every 30 minutes, with the page automatically refreshed every 10 minutes)

About weather observations | Map of weather stations | Latest weather observations for QLD | Other Formats
Station Details ID: 029127 Name: MOUNT ISA AERO Lat: -20.68 Lon: 139.49 Height: 340.3 m
Data from the previous 72 hours. | See also: Recent months at Mount Isa
Date/Time
EST
Temp
°C
App
Temp
°C
Dew
Point
°C
Rel
Hum
%
Delta-T
°C
Wind Press
QNH
hPa
Press
MSL
hPa
Rain since
9am
mm
Dir  Spd
km/h
Gust
km/h
Spd
kts
Gust
kts
30/03:00pm 31.0 27.7 10.9 29 11.7 ENE 19 26 10 14 1016.1 1015.2 0.0
30/02:30pm 29.7 26.7 10.8 31 11.0 NNE 17 28 9 15 1016.5 - 0.0
30/02:00pm 30.8 27.7 12.2 32 11.1 NE 20 26 11 14 1016.9 - 0.0
30/01:30pm 30.1 26.4 11.6 32 10.9 NNE 22 37 12 20 1017.5 - 0.0
30/01:00pm 30.1 26.6 12.1 33 10.7 NNE 22 41 12 22 1018.1 - 0.0
30/12:30pm 29.2 25.7 12.2 35 10.1 N 22 32 12 17 1018.4 - 0.0
30/12:00pm 28.3 24.3 11.8 36 9.6 NNE 24 32 13 17 1019.0 1018.1 0.0
30/11:30am 26.9 22.6 12.2 40 8.6 NNE 26 37 14 20 1019.4 - 0.0
30/11:00am 27.4 23.0 13.0 41 8.6 NE 28 35 15 19 1019.8 - 0.0
30/10:30am 26.1 22.3 13.6 46 7.5 NE 26 35 14 19 1020.2 - 0.0
30/10:00am 25.4 21.2 13.6 48 7.0 NE 28 35 15 19 1020.7 - 0.0
30/09:30am 24.6 21.0 14.1 52 6.3 NNE 26 32 14 17 1020.7 - 0.0
30/09:00am 23.4 20.8 13.8 54 5.7 NE 20 30 11 16 1020.6 1019.7 0.0
30/08:30am 22.9 19.2 13.9 57 5.3 NNE 26 37 14 20 1020.5 - 0.0
30/08:00am 21.7 21.4 14.4 63 4.3 NNE 9 20 5 11 1019.5 - 0.0
30/07:30am 17.2 18.4 13.7 80 2.0 CALM 0 0 0 0 1018.6 - 0.0
30/07:00am 14.9 15.5 11.9 82 1.6 CALM 0 0 0 0 1018.1 - 0.0
30/06:30am 15.1 14.6 11.9 81 1.8 NNE 6 7 3 4 1017.7 - 0.0
30/06:00am 16.3 16.4 12.8 80 2.0 NW 4 7 2 4 1017.1 1016.3 0.0
30/05:30am 17.3 17.0 13.4 78 2.2 NNW 7 9 4 5 1016.6 - 0.0
30/05:00am 17.8 17.2 13.5 76 2.5 N 9 11 5 6 1016.1 - 0.0
30/04:30am 17.5 16.1 12.2 71 3.0 NNE 11 13 6 7 1015.6 - 0.0
30/04:00am 19.5 18.0 13.0 66 3.7 NNE 13 17 7 9 1015.8 - 0.0
30/03:30am 20.0 18.6 13.5 66 3.8 NE 13 15 7 8 1016.0 - 0.0
30/03:00am 20.2 20.8 13.2 64 4.0 NNE 2 6 1 3 1016.4 1015.5 0.0
30/02:30am 20.4 20.0 12.9 62 4.3 N 7 7 4 4 1016.5 - 0.0
30/02:00am 21.0 20.3 13.2 61 4.5 NE 9 11 5 6 1016.5 - 0.0
30/01:30am 20.9 20.8 13.4 62 4.4 NE 6 7 3 4 1016.6 - 0.0
30/01:00am 19.8 19.5 12.6 63 4.1 N 6 7 3 4 1016.6 - 0.0
30/12:30am 19.3 18.6 12.1 63 4.1 NNE 7 7 4 4 1016.7 - 0.0
30/12:00am 19.4 18.8 12.2 63 4.1 N 7 9 4 5 1016.6 1015.7 0.0
 
Date/Time
EST
Temp
°C
App
Temp
°C
Dew
Point
°C
Rel
Hum
%
Delta-T
°C
Wind Press
QNH
hPa
Press
MSL
hPa
Rain since
9am
mm
Dir  Spd
km/h
Gust
km/h
Spd
kts
Gust
kts
29/11:30pm 19.1 18.1 10.9 59 4.5 N 7 9 4 5 1016.4 - 0.0
29/11:00pm 20.3 19.3 11.0 55 5.2 N 7 9 4 5 1016.3 - 0.0
29/10:30pm 22.8 20.8 11.5 49 6.4 N 13 15 7 8 1016.1 - 0.0
29/10:00pm 23.0 20.3 11.7 49 6.5 NE 17 19 9 10 1016.0 - 0.0
29/09:30pm 22.6 20.6 11.4 49 6.4 NE 13 17 7 9 1016.2 - 0.0
29/09:00pm 22.9 20.4 11.0 47 6.7 NE 15 17 8 9 1016.0 1015.1 0.0
29/08:30pm 22.7 20.3 10.2 45 6.9 NE 13 19 7 10 1015.7 - 0.0
29/08:00pm 24.1 21.8 10.4 42 7.7 NE 13 15 7 8 1015.3 - 0.0
29/07:30pm 24.9 22.5 10.0 39 8.3 NE 13 17 7 9 1015.0 - 0.0
29/07:00pm 26.1 23.3 9.9 36 9.1 NE 15 19 8 10 1014.8 - 0.0
29/06:30pm 27.7 24.6 10.4 34 9.9 NE 17 22 9 12 1014.7 - 0.0
29/06:00pm 28.7 25.1 10.4 32 10.5 NE 20 28 11 15 1014.5 1013.6 0.0
29/05:30pm 29.8 26.2 10.4 30 11.2 NE 20 32 11 17 1014.4 - 0.0
29/05:00pm 30.3 25.9 10.3 29 11.5 NE 24 32 13 17 1014.1 - 0.0
29/04:30pm 30.6 26.6 10.5 29 11.7 ENE 22 32 12 17 1013.9 - 0.0
29/04:00pm 30.9 27.2 10.3 28 11.9 N 20 30 11 16 1014.0 - 0.0
29/03:30pm 30.9 26.9 10.3 28 11.9 NE 22 37 12 20 1014.3 - 0.0
29/03:00pm 30.8 27.1 10.2 28 11.9 NNE 20 32 11 17 1014.4 1013.5 0.0
29/02:30pm 31.4 27.5 10.7 28 12.1 NE 22 35 12 19 1014.7 - 0.0
29/02:00pm 30.7 27.7 10.6 29 11.7 N 17 35 9 19 1015.3 - 0.0
29/01:30pm 30.0 27.7 10.5 30 11.3 N 13 28 7 15 1015.9 - 0.0
29/01:00pm 29.8 25.0 10.4 30 11.2 N 26 37 14 20 1016.2 - 0.0
29/12:30pm 28.4 25.4 9.2 30 10.8 NE 15 22 8 12 1016.7 - 0.0
29/12:00pm 27.5 23.9 8.4 30 10.5 NE 17 24 9 13 1017.5 1016.6 0.0
29/11:30am 27.7 25.3 8.6 30 10.6 NNE 11 22 6 12 1018.0 - 0.0
29/11:00am 26.5 24.1 8.5 32 9.9 NNE 11 17 6 9 1018.4 - 0.0
29/10:30am 25.7 23.4 7.3 31 9.9 NNE 9 17 5 9 1018.5 - 0.0
29/10:00am 24.2 21.8 6.9 33 9.1 NE 9 15 5 8 1018.9 - 0.0
29/09:30am 23.0 20.0 5.9 33 8.8 NNE 11 15 6 8 1019.0 - 0.0
29/09:00am 21.8 19.9 7.6 40 7.5 NNE 7 11 4 6 1019.0 1018.1 0.0
29/08:30am 20.2 19.6 7.6 44 6.6 CALM 0 0 0 0 1018.8 - 0.0
29/08:00am 17.2 17.3 10.3 64 3.7 CALM 0 0 0 0 1018.4 - 0.0
29/07:59am 17.1 17.3 10.5 65 3.6 CALM 0 0 0 0 1018.4 - 0.0
29/07:30am 12.1 11.8 8.6 79 1.8 CALM 0 0 0 0 1018.1 - 0.0
29/07:00am 10.5 9.9 7.4 81 1.5 CALM 0 0 0 0 1017.5 - 0.0
29/06:30am 10.8 9.0 7.9 82 1.4 S 7 9 4 5 1017.1 - 0.0
29/06:00am 10.4 9.8 7.3 81 1.5 CALM 0 0 0 0 1016.4 1015.5 0.0
29/05:30am 10.8 10.3 7.7 81 1.5 CALM 0 0 0 0 1016.3 - 0.0
29/05:00am 11.3 10.8 8.0 80 1.6 CALM 0 0 0 0 1016.1 - 0.0
29/04:30am 11.6 10.3 7.7 77 1.9 S 4 7 2 4 1016.0 - 0.0
29/04:00am 12.5 10.7 9.3 81 1.6 E 9 11 5 6 1016.0 - 0.0
29/03:30am 12.4 12.1 8.7 78 1.9 CALM 0 0 0 0 1016.0 - 0.0
29/03:00am 12.1 11.7 8.4 78 1.9 CALM 0 0 0 0 1016.0 1015.1 0.0
29/02:30am 12.1 11.6 7.8 75 2.1 CALM 0 4 0 2 1016.2 - 0.0
29/02:00am 12.9 11.2 8.2 73 2.4 N 7 9 4 5 1016.3 - 0.0
29/01:30am 13.4 13.0 8.3 71 2.6 CALM 0 4 0 2 1016.5 - 0.0
29/01:00am 14.4 12.3 9.6 73 2.5 E 11 17 6 9 1016.6 - 0.0
29/12:30am 13.9 13.5 8.3 69 2.8 CALM 0 0 0 0 1016.4 - 0.0
29/12:00am 13.8 13.4 8.2 69 2.8 CALM 0 0 0 0 1016.4 1015.5 0.0
 
Date/Time
EST
Temp
°C
App
Temp
°C
Dew
Point
°C
Rel
Hum
%
Delta-T
°C
Wind Press
QNH
hPa
Press
MSL
hPa
Rain since
9am
mm
Dir  Spd
km/h
Gust
km/h
Spd
kts
Gust
kts
28/11:30pm 14.4 14.0 8.1 66 3.2 CALM 0 0 0 0 1016.6 - 0.0
28/11:00pm 14.2 13.7 7.9 66 3.2 CALM 0 0 0 0 1016.6 - 0.0
28/10:30pm 14.3 13.7 7.4 63 3.5 CALM 0 0 0 0 1016.7 - 0.0
28/10:00pm 14.6 14.0 7.4 62 3.6 CALM 0 0 0 0 1016.9 - 0.0
28/09:30pm 14.8 14.0 6.6 58 4.1 CALM 0 0 0 0 1016.9 - 0.0
28/09:00pm 15.8 15.1 6.8 55 4.5 CALM 0 0 0 0 1016.8 1016.0 0.0
28/08:30pm 16.4 15.5 6.2 51 5.1 CALM 0 0 0 0 1016.6 - 0.0
28/08:00pm 17.4 16.7 6.9 50 5.3 CALM 0 0 0 0 1016.5 - 0.0
28/07:30pm 18.3 16.0 5.8 44 6.2 E 7 7 4 4 1016.3 - 0.0
28/07:00pm 21.8 19.1 5.7 35 8.2 ENE 9 9 5 5 1016.0 - 0.0
28/06:30pm 24.5 21.8 5.8 30 9.7 ENE 9 13 5 7 1015.7 - 0.0
28/06:00pm 26.5 23.9 6.0 27 10.8 NNE 9 15 5 8 1015.5 1014.6 0.0
28/05:30pm 27.0 23.3 6.4 27 11.0 ENE 15 19 8 10 1015.3 - 0.0
28/05:00pm 27.5 23.7 5.7 25 11.5 NNE 15 24 8 13 1015.3 - 0.0
28/04:30pm 27.4 23.9 5.6 25 11.5 NNE 13 20 7 11 1015.4 - 0.0
28/04:00pm 27.6 23.0 5.8 25 11.5 N 19 26 10 14 1015.3 - 0.0
28/03:30pm 27.8 23.5 5.4 24 11.8 N 17 22 9 12 1015.5 - 0.0
28/03:00pm 27.3 22.6 6.1 26 11.2 ENE 20 33 11 18 1015.8 1014.9 0.0
28/02:30pm 26.9 22.1 5.8 26 11.1 ENE 20 30 11 16 1016.1 - 0.0
28/02:00pm 27.1 22.4 6.0 26 11.2 ENE 20 33 11 18 1016.8 - 0.0
28/01:30pm 26.2 20.9 5.2 26 10.9 NE 22 32 12 17 1017.5 - 0.0
28/01:00pm 26.1 20.3 4.6 25 11.0 NNE 24 30 13 16 1017.8 - 0.0
28/12:30pm 25.7 19.9 4.2 25 10.9 NNE 24 32 13 17 1018.3 - 0.0
28/12:00pm 24.2 18.2 3.5 26 10.3 NE 24 33 13 18 1018.9 1018.0 0.0
28/11:30am 23.8 17.9 3.7 27 10.0 NNE 24 33 13 18 1019.4 - 0.0
28/11:00am 22.7 16.7 3.3 28 9.5 NNE 24 28 13 15 1019.9 - 0.0
28/10:30am 21.5 16.1 2.7 29 9.0 ENE 20 30 11 16 1020.5 - 0.0
28/10:00am 20.5 14.0 2.8 31 8.4 ENE 26 37 14 20 1020.8 - 0.0
28/09:30am 19.0 13.6 2.4 33 7.8 ENE 20 32 11 17 1020.7 - 0.0
28/09:00am 17.7 12.5 3.6 39 6.7 ENE 20 33 11 18 1020.7 1019.8 0.0
28/08:30am 16.2 11.0 3.3 42 6.0 ENE 20 32 11 17 1020.6 - 0.0
28/08:00am 15.1 9.9 3.3 45 5.5 ENE 20 32 11 17 1020.1 - 0.0
28/07:30am 13.7 8.6 4.0 52 4.5 ENE 20 32 11 17 1019.8 - 0.0
28/07:00am 11.2 5.7 4.2 62 3.2 ENE 22 30 12 16 1019.4 - 0.0
28/06:30am 10.8 6.5 3.1 59 3.4 ENE 15 19 8 10 1019.3 - 0.0
28/06:00am 11.2 7.6 2.8 56 3.7 NE 11 13 6 7 1018.9 1018.0 0.0
28/05:30am 12.3 8.7 2.7 52 4.3 NE 11 13 6 7 1018.6 - 0.0
28/05:00am 13.8 9.5 3.3 49 4.8 E 15 20 8 11 1018.4 - 0.0
28/04:30am 13.2 8.9 3.3 51 4.5 E 15 20 8 11 1018.3 - 0.0
28/04:00am 13.0 9.5 3.4 52 4.4 E 11 15 6 8 1018.5 - 0.0
28/03:30am 13.3 9.8 3.4 51 4.5 E 11 13 6 7 1018.8 - 0.0
28/03:00am 13.7 10.6 3.5 50 4.7 E 9 15 5 8 1019.1 1018.2 0.0
28/02:30am 13.4 10.2 3.2 50 4.6 ESE 9 13 5 7 1019.4 - 0.0
28/02:00am 13.7 10.1 3.2 49 4.8 ESE 11 15 6 8 1019.5 - 0.0
28/01:30am 14.1 10.2 3.3 48 5.0 ESE 13 15 7 8 1019.7 - 0.0
28/01:00am 14.4 11.0 3.8 49 4.9 ESE 11 15 6 8 1020.1 - 0.0
28/12:30am 13.4 10.4 4.0 53 4.4 ESE 9 11 5 6 1020.1 - 0.0
28/12:00am 10.2 6.5 2.1 57 3.5 E 11 13 6 7 1020.5 1019.6 0.0
 
Date/Time
EST
Temp
°C
App
Temp
°C
Dew
Point
°C
Rel
Hum
%
Delta-T
°C
Wind Press
QNH
hPa
Press
MSL
hPa
Rain since
9am
mm
Dir  Spd
km/h
Gust
km/h
Spd
kts
Gust
kts
27/11:30pm 13.7 10.5 3.2 49 4.8 E 9 11 5 6 1020.5 - 0.0
27/11:00pm 14.4 11.2 3.2 47 5.1 E 9 11 5 6 1020.6 - 0.0
27/10:30pm 14.5 11.6 2.4 44 5.5 ESE 7 9 4 5 1020.3 - 0.0
27/10:00pm 16.5 12.5 2.9 40 6.3 ESE 13 17 7 9 1020.3 - 0.0
27/09:30pm 14.5 11.1 3.9 49 4.9 E 11 13 6 7 1020.5 - 0.0
27/09:00pm 12.4 9.1 2.3 50 4.5 E 9 13 5 7 1020.5 1019.6 0.0
27/08:30pm 13.0 9.5 1.0 44 5.2 ENE 9 13 5 7 1020.3 - 0.0
27/08:00pm 16.7 13.2 1.2 35 6.9 E 9 11 5 6 1020.0 - 0.0
27/07:30pm 17.5 13.9 0.6 32 7.5 E 9 9 5 5 1019.7 - 0.0
27/07:00pm 18.7 14.3 0.3 29 8.2 E 13 17 7 9 1019.4 - 0.0
27/06:30pm 20.1 15.6 0.0 26 9.0 E 13 17 7 9 1019.3 - 0.0
27/06:00pm 21.5 16.2 -0.5 23 9.9 ESE 17 24 9 13 1018.8 1017.9 0.0
27/05:30pm 22.3 16.6 -0.4 22 10.3 E 19 26 10 14 1018.8 - 0.0
27/05:00pm 22.5 16.7 -0.3 22 10.4 ESE 20 26 11 14 1018.7 - 0.0
27/04:30pm 23.0 17.3 -0.5 21 10.7 SSE 19 35 10 19 1018.5 - 0.0
27/04:00pm 23.0 17.3 -0.5 21 10.7 SE 19 28 10 15 1018.6 - 0.0
27/03:30pm 23.3 18.9 0.4 22 10.7 E 13 26 7 14 1018.7 - 0.0

Other Formats:

Comma delimited format used in spreadsheet applications
http://www.bom.gov.au/fwo/IDQ60801/IDQ60801.94332.axf

JavaScript Object Notation format (JSON) in row-major order
http://www.bom.gov.au/fwo/IDQ60801/IDQ60801.94332.json